sensor_id;sensor_type;location;lat;lon;timestamp;temperature;humidity
23083;DHT22;11709;52.420;10.538;2023-04-20T00:01:54;5.80;99.90
23083;DHT22;11709;52.420;10.538;2023-04-20T00:05:58;5.80;99.90
23083;DHT22;11709;52.420;10.538;2023-04-20T00:10:03;5.70;99.90
23083;DHT22;11709;52.420;10.538;2023-04-20T00:14:06;5.90;99.90
23083;DHT22;11709;52.420;10.538;2023-04-20T00:18:09;5.90;99.90
23083;DHT22;11709;52.420;10.538;2023-04-20T00:22:12;5.90;99.90
23083;DHT22;11709;52.420;10.538;2023-04-20T00:26:14;6.00;99.90
23083;DHT22;11709;52.420;10.538;2023-04-20T00:30:17;5.90;99.90
23083;DHT22;11709;52.420;10.538;2023-04-20T00:34:20;5.90;99.90
23083;DHT22;11709;52.420;10.538;2023-04-20T00:38:24;5.90;99.90
23083;DHT22;11709;52.420;10.538;2023-04-20T00:42:28;5.90;99.90
23083;DHT22;11709;52.420;10.538;2023-04-20T00:46:30;6.00;99.90
23083;DHT22;11709;52.420;10.538;2023-04-20T00:50:33;6.00;99.90
23083;DHT22;11709;52.420;10.538;2023-04-20T00:54:36;6.00;99.90
23083;DHT22;11709;52.420;10.538;2023-04-20T00:58:40;6.00;99.90
23083;DHT22;11709;52.420;10.538;2023-04-20T01:02:43;6.10;99.90
23083;DHT22;11709;52.420;10.538;2023-04-20T01:06:46;6.20;99.90
23083;DHT22;11709;52.420;10.538;2023-04-20T01:10:49;6.00;99.90
23083;DHT22;11709;52.420;10.538;2023-04-20T01:14:51;6.10;99.90
23083;DHT22;11709;52.420;10.538;2023-04-20T01:18:55;6.10;99.90
23083;DHT22;11709;52.420;10.538;2023-04-20T01:22:57;6.10;99.90
23083;DHT22;11709;52.420;10.538;2023-04-20T01:27:00;6.10;99.90
23083;DHT22;11709;52.420;10.538;2023-04-20T01:31:05;6.10;99.90
23083;DHT22;11709;52.420;10.538;2023-04-20T01:35:08;6.10;99.90
23083;DHT22;11709;52.420;10.538;2023-04-20T01:39:13;6.10;99.90
23083;DHT22;11709;52.420;10.538;2023-04-20T01:43:16;6.00;99.90
23083;DHT22;11709;52.420;10.538;2023-04-20T01:47:18;6.10;99.90
23083;DHT22;11709;52.420;10.538;2023-04-20T01:51:21;6.10;99.90
23083;DHT22;11709;52.420;10.538;2023-04-20T01:55:23;6.00;99.90
23083;DHT22;11709;52.420;10.538;2023-04-20T01:59:26;6.00;99.90
23083;DHT22;11709;52.420;10.538;2023-04-20T02:03:28;6.10;99.90
23083;DHT22;11709;52.420;10.538;2023-04-20T02:07:31;6.10;99.90
23083;DHT22;11709;52.420;10.538;2023-04-20T02:11:34;6.00;99.90
23083;DHT22;11709;52.420;10.538;2023-04-20T02:15:36;6.00;99.90
23083;DHT22;11709;52.420;10.538;2023-04-20T02:19:39;6.00;99.90
23083;DHT22;11709;52.420;10.538;2023-04-20T02:23:41;6.00;99.90
23083;DHT22;11709;52.420;10.538;2023-04-20T02:27:44;6.00;99.90
23083;DHT22;11709;52.420;10.538;2023-04-20T02:31:48;6.00;99.90
23083;DHT22;11709;52.420;10.538;2023-04-20T02:35:51;6.00;99.90
23083;DHT22;11709;52.420;10.538;2023-04-20T02:39:54;6.00;99.90
23083;DHT22;11709;52.420;10.538;2023-04-20T02:43:57;6.10;99.90
23083;DHT22;11709;52.420;10.538;2023-04-20T02:48:00;6.10;99.90
23083;DHT22;11709;52.420;10.538;2023-04-20T02:52:05;6.10;99.90
23083;DHT22;11709;52.420;10.538;2023-04-20T02:56:07;6.20;99.90
23083;DHT22;11709;52.420;10.538;2023-04-20T03:00:10;6.10;99.90
23083;DHT22;11709;52.420;10.538;2023-04-20T03:04:14;6.00;99.90
23083;DHT22;11709;52.420;10.538;2023-04-20T03:08:16;6.00;99.90
23083;DHT22;11709;52.420;10.538;2023-04-20T03:12:19;6.00;99.90
23083;DHT22;11709;52.420;10.538;2023-04-20T03:16:22;6.00;99.90
23083;DHT22;11709;52.420;10.538;2023-04-20T03:20:25;5.90;99.90
23083;DHT22;11709;52.420;10.538;2023-04-20T03:24:27;5.90;99.90
23083;DHT22;11709;52.420;10.538;2023-04-20T03:28:30;5.90;99.90
23083;DHT22;11709;52.420;10.538;2023-04-20T03:32:32;6.00;99.90
23083;DHT22;11709;52.420;10.538;2023-04-20T03:36:35;6.00;99.90
23083;DHT22;11709;52.420;10.538;2023-04-20T03:40:38;5.90;99.90
23083;DHT22;11709;52.420;10.538;2023-04-20T03:44:40;6.00;99.90
23083;DHT22;11709;52.420;10.538;2023-04-20T03:48:43;6.00;99.90
23083;DHT22;11709;52.420;10.538;2023-04-20T03:52:45;6.00;99.90
23083;DHT22;11709;52.420;10.538;2023-04-20T03:56:48;6.00;99.90
23083;DHT22;11709;52.420;10.538;2023-04-20T04:00:50;6.00;99.90
23083;DHT22;11709;52.420;10.538;2023-04-20T04:04:54;6.00;99.90
23083;DHT22;11709;52.420;10.538;2023-04-20T04:08:57;6.00;99.90
23083;DHT22;11709;52.420;10.538;2023-04-20T04:12:59;6.00;99.90
23083;DHT22;11709;52.420;10.538;2023-04-20T04:17:02;6.00;99.90
23083;DHT22;11709;52.420;10.538;2023-04-20T04:21:04;6.00;99.90
23083;DHT22;11709;52.420;10.538;2023-04-20T04:25:08;6.00;99.90
23083;DHT22;11709;52.420;10.538;2023-04-20T04:29:12;6.00;99.90
23083;DHT22;11709;52.420;10.538;2023-04-20T04:33:14;6.10;99.90
23083;DHT22;11709;52.420;10.538;2023-04-20T04:37:18;6.00;99.90
23083;DHT22;11709;52.420;10.538;2023-04-20T04:41:21;6.10;99.90
23083;DHT22;11709;52.420;10.538;2023-04-20T04:45:23;6.10;99.90
23083;DHT22;11709;52.420;10.538;2023-04-20T04:49:26;6.20;99.90
23083;DHT22;11709;52.420;10.538;2023-04-20T04:53:29;6.10;99.90
23083;DHT22;11709;52.420;10.538;2023-04-20T04:57:33;6.10;99.90
23083;DHT22;11709;52.420;10.538;2023-04-20T05:01:39;6.20;99.90
23083;DHT22;11709;52.420;10.538;2023-04-20T05:05:42;6.20;99.90
23083;DHT22;11709;52.420;10.538;2023-04-20T05:09:46;6.20;99.90
23083;DHT22;11709;52.420;10.538;2023-04-20T05:13:49;6.20;99.90
23083;DHT22;11709;52.420;10.538;2023-04-20T05:17:51;6.20;99.90
23083;DHT22;11709;52.420;10.538;2023-04-20T05:21:54;6.30;99.90
23083;DHT22;11709;52.420;10.538;2023-04-20T05:25:56;6.20;99.90
23083;DHT22;11709;52.420;10.538;2023-04-20T05:29:59;6.30;99.90
23083;DHT22;11709;52.420;10.538;2023-04-20T05:34:02;6.30;99.90
23083;DHT22;11709;52.420;10.538;2023-04-20T05:38:04;6.30;99.90
23083;DHT22;11709;52.420;10.538;2023-04-20T05:42:07;6.30;99.90
23083;DHT22;11709;52.420;10.538;2023-04-20T05:46:09;6.40;99.90
23083;DHT22;11709;52.420;10.538;2023-04-20T05:50:12;6.40;99.90
23083;DHT22;11709;52.420;10.538;2023-04-20T05:54:15;6.50;99.90
23083;DHT22;11709;52.420;10.538;2023-04-20T05:58:17;6.40;99.90
23083;DHT22;11709;52.420;10.538;2023-04-20T06:02:20;6.50;99.90
23083;DHT22;11709;52.420;10.538;2023-04-20T06:06:23;6.50;99.90
23083;DHT22;11709;52.420;10.538;2023-04-20T06:10:26;6.60;99.90
23083;DHT22;11709;52.420;10.538;2023-04-20T06:14:30;6.70;99.90
23083;DHT22;11709;52.420;10.538;2023-04-20T06:18:32;6.70;99.90
23083;DHT22;11709;52.420;10.538;2023-04-20T06:22:36;6.80;99.90
23083;DHT22;11709;52.420;10.538;2023-04-20T06:26:38;6.80;99.90
23083;DHT22;11709;52.420;10.538;2023-04-20T06:30:41;6.80;99.90
23083;DHT22;11709;52.420;10.538;2023-04-20T06:34:43;6.80;99.90
23083;DHT22;11709;52.420;10.538;2023-04-20T06:38:47;6.90;99.90
23083;DHT22;11709;52.420;10.538;2023-04-20T06:42:50;6.90;99.90
23083;DHT22;11709;52.420;10.538;2023-04-20T06:46:53;6.90;99.90
23083;DHT22;11709;52.420;10.538;2023-04-20T06:50:55;6.90;99.90
23083;DHT22;11709;52.420;10.538;2023-04-20T06:54:58;6.90;99.90
23083;DHT22;11709;52.420;10.538;2023-04-20T06:59:01;6.90;99.90
23083;DHT22;11709;52.420;10.538;2023-04-20T07:03:03;7.00;99.90
23083;DHT22;11709;52.420;10.538;2023-04-20T07:07:06;7.20;99.90
23083;DHT22;11709;52.420;10.538;2023-04-20T07:11:08;7.40;99.90
23083;DHT22;11709;52.420;10.538;2023-04-20T07:15:11;7.50;99.90
23083;DHT22;11709;52.420;10.538;2023-04-20T07:19:14;7.50;99.90
23083;DHT22;11709;52.420;10.538;2023-04-20T07:23:16;7.60;99.90
23083;DHT22;11709;52.420;10.538;2023-04-20T07:27:19;7.50;99.90
23083;DHT22;11709;52.420;10.538;2023-04-20T07:31:21;7.60;99.90
23083;DHT22;11709;52.420;10.538;2023-04-20T07:35:24;7.70;99.90
23083;DHT22;11709;52.420;10.538;2023-04-20T07:39:26;7.90;99.90
23083;DHT22;11709;52.420;10.538;2023-04-20T07:43:30;7.90;99.90
23083;DHT22;11709;52.420;10.538;2023-04-20T07:47:33;7.90;99.90
23083;DHT22;11709;52.420;10.538;2023-04-20T07:51:36;8.00;99.90
23083;DHT22;11709;52.420;10.538;2023-04-20T07:55:38;8.10;99.90
23083;DHT22;11709;52.420;10.538;2023-04-20T07:59:41;8.00;99.90
23083;DHT22;11709;52.420;10.538;2023-04-20T08:03:43;8.20;99.90
23083;DHT22;11709;52.420;10.538;2023-04-20T08:07:46;8.10;99.90
23083;DHT22;11709;52.420;10.538;2023-04-20T08:11:49;8.20;99.90
23083;DHT22;11709;52.420;10.538;2023-04-20T08:15:51;8.10;99.90
23083;DHT22;11709;52.420;10.538;2023-04-20T08:19:54;8.10;99.90
23083;DHT22;11709;52.420;10.538;2023-04-20T08:23:56;8.10;99.90
23083;DHT22;11709;52.420;10.538;2023-04-20T08:27:59;8.20;99.90
23083;DHT22;11709;52.420;10.538;2023-04-20T08:32:02;8.30;99.90
23083;DHT22;11709;52.420;10.538;2023-04-20T08:36:05;8.50;99.90
23083;DHT22;11709;52.420;10.538;2023-04-20T08:40:08;8.70;99.90
23083;DHT22;11709;52.420;10.538;2023-04-20T08:44:11;8.70;99.90
23083;DHT22;11709;52.420;10.538;2023-04-20T08:48:14;8.70;99.90
23083;DHT22;11709;52.420;10.538;2023-04-20T08:52:18;8.90;99.90
23083;DHT22;11709;52.420;10.538;2023-04-20T08:56:34;9.30;99.90
23083;DHT22;11709;52.420;10.538;2023-04-20T09:00:45;9.80;99.90
23083;DHT22;11709;52.420;10.538;2023-04-20T09:04:48;9.70;99.90
23083;DHT22;11709;52.420;10.538;2023-04-20T09:08:50;9.70;99.90
23083;DHT22;11709;52.420;10.538;2023-04-20T09:12:53;9.90;99.90
23083;DHT22;11709;52.420;10.538;2023-04-20T09:16:57;10.20;99.90
23083;DHT22;11709;52.420;10.538;2023-04-20T09:21:10;10.20;99.90
23083;DHT22;11709;52.420;10.538;2023-04-20T09:25:16;10.50;99.90
23083;DHT22;11709;52.420;10.538;2023-04-20T09:29:22;10.30;99.90
23083;DHT22;11709;52.420;10.538;2023-04-20T09:33:29;10.30;99.90
23083;DHT22;11709;52.420;10.538;2023-04-20T09:37:32;10.40;99.90
23083;DHT22;11709;52.420;10.538;2023-04-20T09:41:35;10.20;99.90
23083;DHT22;11709;52.420;10.538;2023-04-20T09:45:38;10.10;99.90
23083;DHT22;11709;52.420;10.538;2023-04-20T09:49:42;10.30;99.90
23083;DHT22;11709;52.420;10.538;2023-04-20T09:53:45;10.30;99.90
23083;DHT22;11709;52.420;10.538;2023-04-20T09:57:49;10.50;99.90
23083;DHT22;11709;52.420;10.538;2023-04-20T10:01:51;11.00;99.90
23083;DHT22;11709;52.420;10.538;2023-04-20T10:05:54;11.50;99.90
23083;DHT22;11709;52.420;10.538;2023-04-20T10:18:21;12.70;99.90
23083;DHT22;11709;52.420;10.538;2023-04-20T10:22:29;12.90;99.90
23083;DHT22;11709;52.420;10.538;2023-04-20T10:26:36;13.20;99.90
23083;DHT22;11709;52.420;10.538;2023-04-20T10:30:48;13.50;99.90
23083;DHT22;11709;52.420;10.538;2023-04-20T10:34:44;13.70;99.90
23083;DHT22;11709;52.420;10.538;2023-04-20T10:38:46;13.50;99.90
23083;DHT22;11709;52.420;10.538;2023-04-20T10:42:49;12.80;99.90
23083;DHT22;11709;52.420;10.538;2023-04-20T10:46:52;12.40;99.90
23083;DHT22;11709;52.420;10.538;2023-04-20T10:50:55;12.50;99.90
23083;DHT22;11709;52.420;10.538;2023-04-20T10:54:58;13.20;99.90
23083;DHT22;11709;52.420;10.538;2023-04-20T10:59:08;13.10;99.90
23083;DHT22;11709;52.420;10.538;2023-04-20T11:03:13;13.60;99.90
23083;DHT22;11709;52.420;10.538;2023-04-20T11:07:16;13.70;99.90
23083;DHT22;11709;52.420;10.538;2023-04-20T11:11:23;13.70;99.90
23083;DHT22;11709;52.420;10.538;2023-04-20T11:15:33;13.80;99.90
23083;DHT22;11709;52.420;10.538;2023-04-20T11:19:38;13.70;99.90
23083;DHT22;11709;52.420;10.538;2023-04-20T11:23:41;13.50;99.90
23083;DHT22;11709;52.420;10.538;2023-04-20T11:27:46;13.20;99.90
23083;DHT22;11709;52.420;10.538;2023-04-20T11:31:50;13.30;99.90
23083;DHT22;11709;52.420;10.538;2023-04-20T11:35:52;13.40;99.90
23083;DHT22;11709;52.420;10.538;2023-04-20T11:39:59;13.30;99.90
23083;DHT22;11709;52.420;10.538;2023-04-20T11:44:02;12.90;99.90
23083;DHT22;11709;52.420;10.538;2023-04-20T11:48:06;13.20;99.90
23083;DHT22;11709;52.420;10.538;2023-04-20T11:52:08;13.40;99.90
23083;DHT22;11709;52.420;10.538;2023-04-20T11:56:11;13.90;99.90
23083;DHT22;11709;52.420;10.538;2023-04-20T12:00:15;13.60;99.90
23083;DHT22;11709;52.420;10.538;2023-04-20T12:04:21;13.50;99.90
23083;DHT22;11709;52.420;10.538;2023-04-20T12:08:23;13.20;99.90
23083;DHT22;11709;52.420;10.538;2023-04-20T12:12:26;12.90;99.90
23083;DHT22;11709;52.420;10.538;2023-04-20T12:16:28;12.90;99.90
23083;DHT22;11709;52.420;10.538;2023-04-20T12:20:31;13.00;99.90
23083;DHT22;11709;52.420;10.538;2023-04-20T12:24:34;13.00;99.90
23083;DHT22;11709;52.420;10.538;2023-04-20T12:28:36;13.00;99.90
23083;DHT22;11709;52.420;10.538;2023-04-20T12:32:39;12.50;99.90
23083;DHT22;11709;52.420;10.538;2023-04-20T12:36:42;12.30;99.90
23083;DHT22;11709;52.420;10.538;2023-04-20T12:40:44;12.00;99.90
23083;DHT22;11709;52.420;10.538;2023-04-20T12:44:47;11.70;99.90
23083;DHT22;11709;52.420;10.538;2023-04-20T12:48:49;11.60;99.90
23083;DHT22;11709;52.420;10.538;2023-04-20T12:52:52;11.40;99.90
23083;DHT22;11709;52.420;10.538;2023-04-20T12:56:56;11.30;99.90
23083;DHT22;11709;52.420;10.538;2023-04-20T13:00:59;11.20;99.90
23083;DHT22;11709;52.420;10.538;2023-04-20T13:05:01;11.10;99.90
23083;DHT22;11709;52.420;10.538;2023-04-20T13:09:04;11.10;99.90
23083;DHT22;11709;52.420;10.538;2023-04-20T13:13:09;11.00;99.90
23083;DHT22;11709;52.420;10.538;2023-04-20T13:17:11;11.00;99.90
23083;DHT22;11709;52.420;10.538;2023-04-20T13:21:14;10.90;99.90
23083;DHT22;11709;52.420;10.538;2023-04-20T13:25:17;10.80;99.90
23083;DHT22;11709;52.420;10.538;2023-04-20T13:29:19;10.60;99.90
23083;DHT22;11709;52.420;10.538;2023-04-20T13:33:22;10.60;99.90
23083;DHT22;11709;52.420;10.538;2023-04-20T13:37:24;10.40;99.90
23083;DHT22;11709;52.420;10.538;2023-04-20T13:41:27;10.20;99.90
23083;DHT22;11709;52.420;10.538;2023-04-20T13:45:30;10.00;99.90
23083;DHT22;11709;52.420;10.538;2023-04-20T13:49:32;10.00;99.90
23083;DHT22;11709;52.420;10.538;2023-04-20T13:53:35;9.90;99.90
23083;DHT22;11709;52.420;10.538;2023-04-20T13:57:37;10.00;99.90
23083;DHT22;11709;52.420;10.538;2023-04-20T14:01:40;9.90;99.90
23083;DHT22;11709;52.420;10.538;2023-04-20T14:05:42;9.80;99.90
23083;DHT22;11709;52.420;10.538;2023-04-20T14:09:46;9.80;99.90
23083;DHT22;11709;52.420;10.538;2023-04-20T14:13:48;9.80;99.90
23083;DHT22;11709;52.420;10.538;2023-04-20T14:17:52;9.80;99.90
23083;DHT22;11709;52.420;10.538;2023-04-20T14:21:54;9.70;99.90
23083;DHT22;11709;52.420;10.538;2023-04-20T14:25:57;9.60;99.90
23083;DHT22;11709;52.420;10.538;2023-04-20T14:30:01;9.60;99.90
23083;DHT22;11709;52.420;10.538;2023-04-20T14:34:04;9.60;99.90
23083;DHT22;11709;52.420;10.538;2023-04-20T14:38:06;9.60;99.90
23083;DHT22;11709;52.420;10.538;2023-04-20T14:42:09;9.50;99.90
23083;DHT22;11709;52.420;10.538;2023-04-20T14:46:13;9.40;99.90
23083;DHT22;11709;52.420;10.538;2023-04-20T14:50:17;9.40;99.90
23083;DHT22;11709;52.420;10.538;2023-04-20T14:54:21;9.40;99.90
23083;DHT22;11709;52.420;10.538;2023-04-20T14:58:25;9.40;99.90
23083;DHT22;11709;52.420;10.538;2023-04-20T15:02:28;9.40;99.90
23083;DHT22;11709;52.420;10.538;2023-04-20T15:06:30;9.30;99.90
23083;DHT22;11709;52.420;10.538;2023-04-20T15:10:36;9.30;99.90
23083;DHT22;11709;52.420;10.538;2023-04-20T15:14:43;9.30;99.90
23083;DHT22;11709;52.420;10.538;2023-04-20T15:18:52;9.30;99.90
23083;DHT22;11709;52.420;10.538;2023-04-20T15:22:55;9.40;99.90
23083;DHT22;11709;52.420;10.538;2023-04-20T15:26:59;9.40;99.90
23083;DHT22;11709;52.420;10.538;2023-04-20T15:31:02;9.50;99.90
23083;DHT22;11709;52.420;10.538;2023-04-20T15:35:06;9.50;99.90
23083;DHT22;11709;52.420;10.538;2023-04-20T15:39:09;9.60;99.90
23083;DHT22;11709;52.420;10.538;2023-04-20T15:43:11;9.60;99.90
23083;DHT22;11709;52.420;10.538;2023-04-20T15:47:14;9.70;99.90
23083;DHT22;11709;52.420;10.538;2023-04-20T15:51:17;9.70;99.90
23083;DHT22;11709;52.420;10.538;2023-04-20T15:55:20;9.70;99.90
23083;DHT22;11709;52.420;10.538;2023-04-20T15:59:23;9.70;99.90
23083;DHT22;11709;52.420;10.538;2023-04-20T16:03:25;9.70;99.90
23083;DHT22;11709;52.420;10.538;2023-04-20T16:07:28;9.70;99.90
23083;DHT22;11709;52.420;10.538;2023-04-20T16:11:30;9.80;99.90
23083;DHT22;11709;52.420;10.538;2023-04-20T16:15:33;9.70;99.90
23083;DHT22;11709;52.420;10.538;2023-04-20T16:19:36;9.80;99.90
23083;DHT22;11709;52.420;10.538;2023-04-20T16:23:38;9.80;99.90
23083;DHT22;11709;52.420;10.538;2023-04-20T16:27:41;9.80;99.90
23083;DHT22;11709;52.420;10.538;2023-04-20T16:31:44;9.80;99.90
23083;DHT22;11709;52.420;10.538;2023-04-20T16:35:46;10.00;99.90
23083;DHT22;11709;52.420;10.538;2023-04-20T16:39:49;10.10;99.90
23083;DHT22;11709;52.420;10.538;2023-04-20T16:43:51;10.20;99.90
23083;DHT22;11709;52.420;10.538;2023-04-20T16:47:56;10.30;99.90
23083;DHT22;11709;52.420;10.538;2023-04-20T16:51:58;10.30;99.90
23083;DHT22;11709;52.420;10.538;2023-04-20T16:56:00;10.40;99.90
23083;DHT22;11709;52.420;10.538;2023-04-20T17:00:04;10.40;99.90
23083;DHT22;11709;52.420;10.538;2023-04-20T17:04:07;10.40;99.90
23083;DHT22;11709;52.420;10.538;2023-04-20T17:08:10;10.20;99.90
23083;DHT22;11709;52.420;10.538;2023-04-20T17:12:12;10.20;99.90
23083;DHT22;11709;52.420;10.538;2023-04-20T17:16:15;10.20;99.90
23083;DHT22;11709;52.420;10.538;2023-04-20T17:20:17;10.10;99.90
23083;DHT22;11709;52.420;10.538;2023-04-20T17:24:20;10.00;99.90
23083;DHT22;11709;52.420;10.538;2023-04-20T17:28:22;10.00;99.90
23083;DHT22;11709;52.420;10.538;2023-04-20T17:32:25;10.00;99.90
23083;DHT22;11709;52.420;10.538;2023-04-20T17:36:28;10.00;99.90
23083;DHT22;11709;52.420;10.538;2023-04-20T17:40:32;10.00;99.90
23083;DHT22;11709;52.420;10.538;2023-04-20T17:44:34;9.90;99.90
23083;DHT22;11709;52.420;10.538;2023-04-20T17:48:37;9.90;99.90
23083;DHT22;11709;52.420;10.538;2023-04-20T17:52:39;10.00;99.90
23083;DHT22;11709;52.420;10.538;2023-04-20T17:56:42;10.00;99.90
23083;DHT22;11709;52.420;10.538;2023-04-20T18:00:44;10.00;99.90
23083;DHT22;11709;52.420;10.538;2023-04-20T18:04:47;9.90;99.90
23083;DHT22;11709;52.420;10.538;2023-04-20T18:08:50;9.90;99.90
23083;DHT22;11709;52.420;10.538;2023-04-20T18:12:52;9.80;99.90
23083;DHT22;11709;52.420;10.538;2023-04-20T18:16:55;9.70;99.90
23083;DHT22;11709;52.420;10.538;2023-04-20T18:20:58;9.70;99.90
23083;DHT22;11709;52.420;10.538;2023-04-20T18:25:00;9.60;99.90
23083;DHT22;11709;52.420;10.538;2023-04-20T18:29:03;9.60;99.90
23083;DHT22;11709;52.420;10.538;2023-04-20T18:33:05;9.60;99.90
23083;DHT22;11709;52.420;10.538;2023-04-20T18:37:08;9.50;99.90
23083;DHT22;11709;52.420;10.538;2023-04-20T18:41:12;9.50;99.90
23083;DHT22;11709;52.420;10.538;2023-04-20T18:45:15;9.50;99.90
23083;DHT22;11709;52.420;10.538;2023-04-20T18:49:18;9.40;99.90
23083;DHT22;11709;52.420;10.538;2023-04-20T18:53:20;9.30;99.90
23083;DHT22;11709;52.420;10.538;2023-04-20T18:57:23;9.20;99.90
23083;DHT22;11709;52.420;10.538;2023-04-20T19:01:27;9.10;99.90
23083;DHT22;11709;52.420;10.538;2023-04-20T19:05:30;9.10;99.90
23083;DHT22;11709;52.420;10.538;2023-04-20T19:09:33;9.00;99.90
23083;DHT22;11709;52.420;10.538;2023-04-20T19:13:36;8.90;99.90
23083;DHT22;11709;52.420;10.538;2023-04-20T19:17:40;8.80;99.90
23083;DHT22;11709;52.420;10.538;2023-04-20T19:21:43;8.80;99.90
23083;DHT22;11709;52.420;10.538;2023-04-20T19:25:45;8.70;99.90
23083;DHT22;11709;52.420;10.538;2023-04-20T19:29:48;8.60;99.90
23083;DHT22;11709;52.420;10.538;2023-04-20T19:33:50;8.50;99.90
23083;DHT22;11709;52.420;10.538;2023-04-20T19:37:53;8.40;99.90
23083;DHT22;11709;52.420;10.538;2023-04-20T19:41:55;8.30;99.90
23083;DHT22;11709;52.420;10.538;2023-04-20T19:45:58;8.20;99.90
23083;DHT22;11709;52.420;10.538;2023-04-20T19:50:01;8.10;99.90
23083;DHT22;11709;52.420;10.538;2023-04-20T19:54:03;8.10;99.90
23083;DHT22;11709;52.420;10.538;2023-04-20T19:58:06;8.00;99.90
23083;DHT22;11709;52.420;10.538;2023-04-20T20:02:10;8.00;99.90
23083;DHT22;11709;52.420;10.538;2023-04-20T20:06:13;7.90;99.90
23083;DHT22;11709;52.420;10.538;2023-04-20T20:10:16;7.90;99.90
23083;DHT22;11709;52.420;10.538;2023-04-20T20:14:18;7.80;99.90
23083;DHT22;11709;52.420;10.538;2023-04-20T20:18:21;7.70;99.90
23083;DHT22;11709;52.420;10.538;2023-04-20T20:22:24;7.70;99.90
23083;DHT22;11709;52.420;10.538;2023-04-20T20:26:27;7.60;99.90
23083;DHT22;11709;52.420;10.538;2023-04-20T20:30:29;7.60;99.90
23083;DHT22;11709;52.420;10.538;2023-04-20T20:34:32;7.60;99.90
23083;DHT22;11709;52.420;10.538;2023-04-20T20:38:35;7.60;99.90
23083;DHT22;11709;52.420;10.538;2023-04-20T20:42:39;7.60;99.90
23083;DHT22;11709;52.420;10.538;2023-04-20T20:46:43;7.50;99.90
23083;DHT22;11709;52.420;10.538;2023-04-20T20:50:46;7.50;99.90
23083;DHT22;11709;52.420;10.538;2023-04-20T20:54:48;7.50;99.90
23083;DHT22;11709;52.420;10.538;2023-04-20T20:58:51;7.40;99.90
23083;DHT22;11709;52.420;10.538;2023-04-20T21:02:54;7.30;99.90
23083;DHT22;11709;52.420;10.538;2023-04-20T21:06:57;7.20;99.90
23083;DHT22;11709;52.420;10.538;2023-04-20T21:10:59;7.20;99.90
23083;DHT22;11709;52.420;10.538;2023-04-20T21:15:02;7.10;99.90
23083;DHT22;11709;52.420;10.538;2023-04-20T21:19:05;7.00;99.90
23083;DHT22;11709;52.420;10.538;2023-04-20T21:23:07;7.00;99.90
23083;DHT22;11709;52.420;10.538;2023-04-20T21:27:10;6.90;99.90
23083;DHT22;11709;52.420;10.538;2023-04-20T21:31:12;7.00;99.90
23083;DHT22;11709;52.420;10.538;2023-04-20T21:35:15;7.00;99.90
23083;DHT22;11709;52.420;10.538;2023-04-20T21:39:17;7.00;99.90
23083;DHT22;11709;52.420;10.538;2023-04-20T21:43:20;7.10;99.90
23083;DHT22;11709;52.420;10.538;2023-04-20T21:47:22;7.20;99.90
23083;DHT22;11709;52.420;10.538;2023-04-20T21:51:25;7.40;99.90
23083;DHT22;11709;52.420;10.538;2023-04-20T21:55:28;7.40;99.90
23083;DHT22;11709;52.420;10.538;2023-04-20T21:59:30;7.60;99.90
23083;DHT22;11709;52.420;10.538;2023-04-20T22:03:33;7.70;99.90
23083;DHT22;11709;52.420;10.538;2023-04-20T22:07:36;7.80;99.90
23083;DHT22;11709;52.420;10.538;2023-04-20T22:11:38;7.80;99.90
23083;DHT22;11709;52.420;10.538;2023-04-20T22:15:41;8.00;99.90
23083;DHT22;11709;52.420;10.538;2023-04-20T22:19:44;8.10;99.90
23083;DHT22;11709;52.420;10.538;2023-04-20T22:23:47;8.20;99.90
23083;DHT22;11709;52.420;10.538;2023-04-20T22:27:49;8.30;99.90
23083;DHT22;11709;52.420;10.538;2023-04-20T22:31:52;8.40;99.90
23083;DHT22;11709;52.420;10.538;2023-04-20T22:35:54;8.50;99.90
23083;DHT22;11709;52.420;10.538;2023-04-20T22:39:57;8.60;99.90
23083;DHT22;11709;52.420;10.538;2023-04-20T22:43:59;8.70;99.90
23083;DHT22;11709;52.420;10.538;2023-04-20T22:48:02;8.70;99.90
23083;DHT22;11709;52.420;10.538;2023-04-20T22:52:04;8.80;99.90
23083;DHT22;11709;52.420;10.538;2023-04-20T22:56:08;8.80;99.90
23083;DHT22;11709;52.420;10.538;2023-04-20T23:00:11;8.80;99.90
23083;DHT22;11709;52.420;10.538;2023-04-20T23:04:14;8.80;99.90
23083;DHT22;11709;52.420;10.538;2023-04-20T23:08:16;8.80;99.90
23083;DHT22;11709;52.420;10.538;2023-04-20T23:12:21;8.80;99.90
23083;DHT22;11709;52.420;10.538;2023-04-20T23:16:23;8.80;99.90
23083;DHT22;11709;52.420;10.538;2023-04-20T23:20:27;8.80;99.90
23083;DHT22;11709;52.420;10.538;2023-04-20T23:24:30;8.80;99.90
23083;DHT22;11709;52.420;10.538;2023-04-20T23:28:32;8.80;99.90
23083;DHT22;11709;52.420;10.538;2023-04-20T23:32:35;8.80;99.90
23083;DHT22;11709;52.420;10.538;2023-04-20T23:36:38;8.80;99.90
23083;DHT22;11709;52.420;10.538;2023-04-20T23:40:40;8.90;99.90
23083;DHT22;11709;52.420;10.538;2023-04-20T23:44:43;8.80;99.90
23083;DHT22;11709;52.420;10.538;2023-04-20T23:48:45;8.80;99.90
23083;DHT22;11709;52.420;10.538;2023-04-20T23:52:49;8.80;99.90
23083;DHT22;11709;52.420;10.538;2023-04-20T23:56:52;8.80;99.90
